Altoona, Florida
Current Conditions -  °F | °C
As of 7:53 AM on Tuesday 21 Oct 2014 (Local Time) from KLEE Reporting Station
Haze Haze  
Wind Chill: 21°   Ceiling: Unl
Heat Index: 21°   Visibility: 6mi
Dew Point: 20°   Wind: 0mph
Humidity: 96%   Direction: NA
Pressure: 29.96"   Gusts: NA
Location:  28.97°N, 81.65°W
Report Text: KLEE 211153Z 00000KT 6SM BR CLR 21/20 A2996 RMK AO2 SLP146 T02060200 10228 20206 53008
Loading
Personal Weather Stations






























Interactive Weather Map
Tropical Storm Tracking
New forecast layout! Learn more

10-Day Weather Forecast

Advertisements
Track Severe Weather on mobile